createdAt,value
2022-09-29T00:01:07.884Z,10.12
2022-09-29T00:03:34.659Z,10.13
2022-09-29T00:06:01.421Z,10.15
2022-09-29T00:08:30.045Z,10.18
2022-09-29T00:10:56.802Z,10.21
2022-09-29T00:13:23.857Z,10.24
2022-09-29T00:16:00.286Z,10.25
2022-09-29T00:18:27.903Z,10.28
2022-09-29T00:21:02.679Z,10.29
2022-09-29T00:23:30.766Z,10.31
2022-09-29T00:26:07.438Z,10.30
2022-09-29T00:28:35.231Z,10.31
2022-09-29T00:31:03.357Z,10.33
2022-09-29T00:33:34.319Z,10.34
2022-09-29T00:36:06.663Z,10.37
2022-09-29T00:38:34.376Z,10.40
2022-09-29T00:41:01.273Z,10.39
2022-09-29T00:43:49.719Z,10.36
2022-09-29T00:46:38.505Z,10.40
2022-09-29T00:49:15.636Z,10.37
2022-09-29T00:51:48.547Z,10.34
2022-09-29T00:54:18.530Z,10.35
2022-09-29T00:56:46.373Z,10.37
2022-09-29T00:59:24.743Z,10.35
2022-09-29T01:01:54.827Z,10.34
2022-09-29T01:04:22.705Z,10.31
2022-09-29T01:06:56.200Z,10.26
2022-09-29T01:09:28.449Z,10.21
2022-09-29T01:11:58.462Z,10.14
2022-09-29T01:14:27.787Z,10.07
2022-09-29T01:16:54.313Z,10.00
2022-09-29T01:19:39.615Z,9.95
2022-09-29T01:22:17.176Z,9.95
2022-09-29T01:25:05.587Z,9.92
2022-09-29T01:27:56.996Z,9.96
2022-09-29T01:30:46.078Z,9.98
2022-09-29T01:33:42.972Z,10.00
2022-09-29T01:36:24.459Z,9.98
2022-09-29T01:39:11.134Z,9.96
2022-09-29T01:42:03.190Z,9.90
2022-09-29T01:44:41.602Z,9.86
2022-09-29T01:47:25.964Z,9.81
2022-09-29T01:49:59.784Z,9.80
2022-09-29T01:52:33.488Z,9.79
2022-09-29T01:55:08.645Z,9.78
2022-09-29T01:57:45.558Z,9.77
2022-09-29T02:00:15.903Z,9.79
2022-09-29T02:03:01.020Z,9.78
2022-09-29T02:05:42.468Z,9.74
2022-09-29T02:08:19.616Z,9.75
2022-09-29T02:10:55.914Z,9.77
2022-09-29T02:13:24.699Z,9.81
2022-09-29T02:15:55.981Z,9.82
2022-09-29T02:18:30.546Z,9.81
2022-09-29T02:20:57.258Z,9.84
2022-09-29T02:23:23.878Z,9.86
2022-09-29T02:25:51.978Z,9.89
2022-09-29T02:28:19.486Z,9.89
2022-09-29T02:30:46.347Z,9.89
2022-09-29T02:33:20.757Z,9.89
2022-09-29T02:35:49.964Z,9.92
2022-09-29T02:38:45.648Z,9.92
2022-09-29T02:41:52.930Z,9.91
2022-09-29T02:44:41.036Z,9.94
2022-09-29T02:47:23.256Z,9.98
2022-09-29T02:49:50.673Z,9.94
2022-09-29T02:52:43.644Z,9.99
2022-09-29T02:55:27.853Z,10.03
2022-09-29T02:58:13.323Z,10.05
2022-09-29T03:00:40.373Z,10.08
2022-09-29T03:03:06.946Z,10.09
2022-09-29T03:05:33.793Z,10.09
2022-09-29T03:08:00.345Z,10.09
2022-09-29T03:10:30.071Z,10.13
2022-09-29T03:12:57.170Z,10.11
2022-09-29T03:15:23.710Z,10.11
2022-09-29T03:17:50.625Z,10.13
2022-09-29T03:20:17.154Z,10.11
2022-09-29T03:22:43.641Z,10.09
2022-09-29T03:25:14.859Z,10.06
2022-09-29T03:27:42.292Z,10.02
2022-09-29T03:30:09.484Z,10.03
2022-09-29T03:32:35.982Z,10.02
2022-09-29T03:35:02.543Z,10.04
2022-09-29T03:37:29.057Z,10.03
2022-09-29T03:39:55.567Z,10.05
2022-09-29T03:42:24.266Z,10.04
2022-09-29T03:44:52.950Z,10.04
2022-09-29T03:47:19.454Z,10.03
2022-09-29T03:49:46.158Z,10.04
2022-09-29T03:52:12.932Z,10.03
2022-09-29T03:54:39.472Z,10.06
2022-09-29T03:57:06.044Z,10.05
2022-09-29T03:59:32.609Z,10.04
2022-09-29T04:01:59.244Z,10.03
2022-09-29T04:04:26.098Z,10.03
2022-09-29T04:06:52.604Z,10.02
2022-09-29T04:09:19.148Z,10.00
2022-09-29T04:11:45.722Z,9.99
2022-09-29T04:14:12.397Z,10.01
2022-09-29T04:16:38.981Z,9.99
2022-09-29T04:19:05.634Z,9.97
2022-09-29T04:21:32.204Z,9.97
2022-09-29T04:23:58.739Z,9.98
2022-09-29T04:26:25.248Z,9.99
2022-09-29T04:28:51.750Z,9.99
2022-09-29T04:31:18.323Z,10.00
2022-09-29T04:33:45.644Z,10.00
2022-09-29T04:36:12.230Z,9.99
2022-09-29T04:38:38.775Z,10.00
2022-09-29T04:41:05.751Z,9.99
2022-09-29T04:43:32.327Z,9.99
2022-09-29T04:46:03.837Z,9.99
2022-09-29T04:48:34.903Z,9.99
2022-09-29T04:51:02.317Z,10.03
2022-09-29T04:53:28.806Z,10.09
2022-09-29T04:55:55.383Z,10.12
2022-09-29T04:58:21.913Z,10.15
2022-09-29T05:00:48.485Z,10.15
2022-09-29T05:03:15.240Z,10.35
2022-09-29T05:05:41.785Z,11.05
2022-09-29T05:08:08.383Z,11.64
2022-09-29T05:10:34.977Z,12.13
2022-09-29T05:13:01.496Z,12.52
2022-09-29T05:15:28.042Z,12.86
2022-09-29T05:17:54.712Z,13.11
2022-09-29T05:20:21.271Z,13.29
2022-09-29T05:22:47.762Z,13.49
2022-09-29T05:25:14.478Z,13.66
2022-09-29T05:27:40.984Z,13.75
2022-09-29T05:30:08.024Z,13.83
2022-09-29T05:32:34.646Z,13.90
2022-09-29T05:35:01.182Z,13.95
2022-09-29T05:37:27.691Z,13.96
2022-09-29T05:39:54.372Z,13.96
2022-09-29T05:42:20.963Z,13.89
2022-09-29T05:44:47.458Z,13.52
2022-09-29T05:47:13.993Z,13.20
2022-09-29T05:49:40.552Z,13.30
2022-09-29T05:52:07.308Z,13.40
2022-09-29T05:54:33.862Z,13.26
2022-09-29T05:57:00.454Z,12.81
2022-09-29T05:59:27.051Z,12.39
2022-09-29T06:01:53.653Z,12.03
2022-09-29T06:04:20.246Z,11.80
2022-09-29T06:06:47.553Z,11.63
2022-09-29T06:09:16.362Z,11.47
2022-09-29T06:11:42.954Z,11.33
2022-09-29T06:14:09.628Z,11.21
2022-09-29T06:16:36.665Z,11.08
2022-09-29T06:19:04.726Z,10.98
2022-09-29T06:21:32.380Z,10.94
2022-09-29T06:24:01.852Z,10.87
2022-09-29T06:26:28.492Z,10.85
2022-09-29T06:28:56.404Z,10.85
2022-09-29T06:31:27.218Z,10.84
2022-09-29T06:33:57.398Z,10.80
2022-09-29T06:37:03.340Z,10.78
2022-09-29T06:39:30.451Z,10.76
2022-09-29T06:41:57.086Z,10.79
2022-09-29T06:44:26.591Z,10.83
2022-09-29T06:46:55.731Z,10.81
2022-09-29T06:49:23.071Z,10.83
2022-09-29T06:51:49.852Z,10.84
2022-09-29T06:54:20.351Z,10.87
2022-09-29T06:56:48.850Z,10.85
2022-09-29T06:59:19.067Z,10.78
2022-09-29T07:01:49.813Z,10.78
2022-09-29T07:04:17.198Z,10.76
2022-09-29T07:06:45.757Z,10.71
2022-09-29T07:09:16.150Z,10.74
2022-09-29T07:11:47.831Z,10.80
2022-09-29T07:14:20.442Z,10.86
2022-09-29T07:16:48.407Z,10.95
2022-09-29T07:19:16.840Z,11.05
2022-09-29T07:21:44.011Z,11.09
2022-09-29T07:24:10.866Z,11.12
2022-09-29T07:26:38.071Z,11.08
2022-09-29T07:29:04.769Z,11.03
2022-09-29T07:31:40.315Z,11.04
2022-09-29T07:34:11.949Z,11.07
2022-09-29T07:36:39.092Z,11.09
2022-09-29T07:39:05.692Z,11.09
2022-09-29T07:41:32.323Z,11.10
2022-09-29T07:43:58.863Z,11.09
2022-09-29T07:46:25.506Z,11.11
2022-09-29T07:48:52.211Z,11.17
2022-09-29T07:51:20.644Z,11.17
2022-09-29T07:53:47.815Z,11.20
2022-09-29T07:56:20.510Z,11.26
2022-09-29T07:58:49.952Z,11.30
2022-09-29T08:01:18.307Z,11.37
2022-09-29T08:03:50.500Z,11.47
2022-09-29T08:06:16.940Z,11.50
2022-09-29T08:08:56.231Z,11.64
2022-09-29T08:11:31.585Z,11.68
2022-09-29T08:13:59.921Z,11.77
2022-09-29T08:16:26.796Z,11.77
2022-09-29T08:18:53.351Z,11.71
2022-09-29T08:21:19.892Z,11.73
2022-09-29T08:23:46.499Z,11.75
2022-09-29T08:26:21.281Z,11.73
2022-09-29T08:29:05.746Z,11.68
2022-09-29T08:31:34.020Z,11.64
2022-09-29T08:38:05.513Z,11.68
2022-09-29T08:40:32.231Z,11.79
2022-09-29T08:43:34.503Z,11.88
2022-09-29T08:46:34.748Z,11.94
2022-09-29T08:49:11.118Z,12.05
2022-09-29T08:51:45.249Z,12.15
2022-09-29T08:54:38.136Z,12.24
2022-09-29T08:57:07.598Z,12.40
2022-09-29T08:59:34.366Z,12.50
2022-09-29T09:02:03.804Z,12.63
2022-09-29T09:05:02.729Z,12.72
2022-09-29T09:08:03.339Z,12.85
2022-09-29T09:10:44.219Z,12.94
2022-09-29T09:13:26.388Z,12.95
2022-09-29T09:16:08.284Z,12.99
2022-09-29T09:18:59.942Z,13.03
2022-09-29T09:21:55.957Z,13.08
2022-09-29T09:24:38.052Z,13.10
2022-09-29T09:27:04.890Z,13.06
2022-09-29T09:29:37.804Z,13.01
2022-09-29T09:32:08.136Z,13.08
2022-09-29T09:34:57.773Z,13.18
2022-09-29T09:37:38.263Z,13.39
2022-09-29T09:40:18.841Z,13.46
2022-09-29T09:42:52.486Z,13.54
2022-09-29T09:45:36.562Z,13.65
2022-09-29T09:48:22.848Z,13.68
2022-09-29T09:50:50.659Z,13.67
2022-09-29T09:53:28.833Z,13.73
2022-09-29T09:56:13.361Z,13.80
2022-09-29T09:59:04.430Z,13.82
2022-09-29T10:01:31.121Z,13.94
2022-09-29T10:04:00.096Z,14.09
2022-09-29T10:06:26.781Z,14.18
2022-09-29T10:08:53.358Z,14.19
2022-09-29T10:11:34.285Z,14.28
2022-09-29T10:14:04.726Z,14.42
2022-09-29T10:16:41.760Z,14.66
2022-09-29T10:19:10.408Z,14.94
2022-09-29T10:21:41.398Z,15.18
2022-09-29T10:24:28.380Z,15.42
2022-09-29T10:26:58.824Z,15.70
2022-09-29T10:29:42.306Z,15.80
2022-09-29T10:32:37.618Z,15.91
2022-09-29T10:35:06.801Z,16.01
2022-09-29T10:37:43.186Z,16.05
2022-09-29T10:40:10.744Z,16.11
2022-09-29T10:42:38.464Z,16.28
2022-09-29T10:45:04.887Z,16.39
2022-09-29T10:47:31.496Z,16.46
2022-09-29T10:50:16.204Z,16.61
2022-09-29T10:53:05.351Z,16.78
2022-09-29T10:55:36.169Z,16.85
2022-09-29T10:58:44.467Z,16.77
2022-09-29T11:01:19.627Z,16.70
2022-09-29T11:04:03.434Z,16.66
2022-09-29T11:06:35.058Z,16.79
2022-09-29T11:09:07.841Z,16.96
2022-09-29T11:11:39.611Z,17.10
2022-09-29T11:14:23.475Z,17.17
2022-09-29T11:16:54.907Z,17.16
2022-09-29T11:19:22.818Z,17.32
2022-09-29T11:22:26.995Z,17.50
2022-09-29T11:25:22.621Z,17.64
2022-09-29T11:28:30.813Z,17.73
2022-09-29T11:31:11.929Z,17.62
2022-09-29T11:34:10.995Z,17.52
2022-09-29T11:40:11.966Z,17.70
2022-09-29T11:42:41.598Z,17.85
2022-09-29T11:45:15.285Z,17.90
2022-09-29T11:48:10.569Z,17.94
2022-09-29T11:50:55.751Z,17.92
2022-09-29T11:53:47.779Z,17.83
2022-09-29T11:56:31.857Z,17.83
2022-09-29T11:59:01.909Z,17.89
2022-09-29T12:01:54.506Z,17.93
2022-09-29T12:04:36.528Z,17.95
2022-09-29T12:07:29.188Z,17.80
2022-09-29T12:10:26.097Z,17.75
2022-09-29T12:13:02.137Z,17.59
2022-09-29T12:15:46.970Z,17.35
2022-09-29T12:18:18.718Z,17.18
2022-09-29T12:20:50.000Z,17.10
2022-09-29T12:23:21.028Z,17.07
2022-09-29T12:25:56.788Z,16.96
2022-09-29T12:28:34.854Z,16.81
2022-09-29T12:31:12.166Z,16.71
2022-09-29T12:33:43.779Z,16.57
2022-09-29T12:36:53.757Z,16.41
2022-09-29T12:39:34.136Z,16.33
2022-09-29T12:42:19.067Z,16.27
2022-09-29T12:45:12.211Z,16.31
2022-09-29T12:47:55.152Z,16.28
2022-09-29T12:50:24.687Z,16.32
2022-09-29T12:53:09.811Z,16.24
2022-09-29T12:55:45.245Z,16.10
2022-09-29T12:58:22.528Z,16.03
2022-09-29T13:00:55.090Z,16.07
2022-09-29T13:03:36.711Z,16.09
2022-09-29T13:06:06.285Z,16.08
2022-09-29T13:09:14.570Z,16.01
2022-09-29T13:11:59.809Z,16.00
2022-09-29T13:14:51.450Z,16.00
2022-09-29T13:17:30.197Z,15.98
2022-09-29T13:20:45.031Z,15.93
2022-09-29T13:23:14.370Z,15.90
2022-09-29T13:25:59.803Z,15.87
2022-09-29T13:28:32.192Z,15.81
2022-09-29T13:31:04.739Z,15.72
2022-09-29T13:33:32.195Z,15.58
2022-09-29T13:35:59.535Z,15.47
2022-09-29T13:38:33.133Z,15.39
2022-09-29T13:41:39.570Z,15.28
2022-09-29T13:44:27.858Z,15.27
2022-09-29T13:46:56.291Z,15.23
2022-09-29T13:49:25.110Z,15.25
2022-09-29T13:51:57.867Z,15.25
2022-09-29T13:54:31.995Z,15.21
2022-09-29T13:57:06.981Z,15.21
2022-09-29T13:59:35.472Z,15.19
2022-09-29T14:02:03.280Z,15.23
2022-09-29T14:04:45.208Z,15.28
2022-09-29T14:07:36.382Z,15.35
2022-09-29T14:10:14.202Z,15.50
2022-09-29T14:12:41.863Z,15.64
2022-09-29T14:15:15.560Z,15.79
2022-09-29T14:17:46.876Z,16.04
2022-09-29T14:20:28.586Z,16.29
2022-09-29T14:22:57.303Z,16.95
2022-09-29T14:25:29.588Z,17.52
2022-09-29T14:27:57.942Z,17.62
2022-09-29T14:30:35.118Z,17.51
2022-09-29T14:33:10.935Z,17.39
2022-09-29T14:35:40.700Z,17.28
2022-09-29T14:38:13.961Z,17.15
2022-09-29T14:41:13.943Z,16.96
2022-09-29T14:43:53.702Z,16.74
2022-09-29T14:46:57.357Z,16.52
2022-09-29T14:50:19.581Z,16.31
2022-09-29T14:53:06.407Z,15.96
2022-09-29T14:56:00.174Z,15.78
2022-09-29T14:58:45.538Z,15.62
2022-09-29T15:01:24.199Z,15.54
2022-09-29T15:03:52.760Z,15.43
2022-09-29T15:06:20.630Z,15.34
2022-09-29T15:09:16.306Z,15.27
2022-09-29T15:12:04.661Z,15.15
2022-09-29T15:14:39.431Z,15.00
2022-09-29T15:17:38.062Z,14.85
2022-09-29T15:20:22.961Z,14.74
2022-09-29T15:23:14.135Z,14.63
2022-09-29T15:25:43.328Z,14.53
2022-09-29T15:28:16.187Z,14.45
2022-09-29T15:30:44.187Z,14.38
2022-09-29T15:33:22.129Z,14.29
2022-09-29T15:35:57.619Z,14.25
2022-09-29T15:38:24.080Z,14.23
2022-09-29T15:40:55.708Z,14.19
2022-09-29T15:43:26.119Z,14.15
2022-09-29T15:46:02.632Z,14.11
2022-09-29T15:48:31.151Z,14.10
2022-09-29T15:50:58.368Z,14.06
2022-09-29T15:53:27.665Z,14.04
2022-09-29T15:55:55.728Z,14.03
2022-09-29T15:58:31.175Z,13.96
2022-09-29T16:01:06.597Z,13.91
2022-09-29T16:04:01.787Z,13.84
2022-09-29T16:06:38.226Z,13.87
2022-09-29T16:09:08.259Z,13.82
2022-09-29T16:11:37.647Z,13.76
2022-09-29T16:14:28.181Z,13.71
2022-09-29T16:16:58.741Z,13.67
2022-09-29T16:19:31.233Z,13.62
2022-09-29T16:22:04.704Z,13.58
2022-09-29T16:24:34.655Z,13.54
2022-09-29T16:27:01.794Z,13.50
2022-09-29T16:29:30.319Z,13.43
2022-09-29T16:31:58.373Z,13.37
2022-09-29T16:34:28.412Z,13.28
2022-09-29T16:37:02.784Z,13.13
2022-09-29T16:39:34.050Z,13.00
2022-09-29T16:42:06.621Z,12.87
2022-09-29T16:44:43.691Z,12.76
2022-09-29T16:47:10.171Z,12.70
2022-09-29T16:49:44.719Z,12.61
2022-09-29T16:52:14.494Z,12.51
2022-09-29T16:54:43.842Z,12.45
2022-09-29T16:57:23.252Z,12.43
2022-09-29T16:59:53.290Z,12.47
2022-09-29T17:02:22.686Z,12.43
2022-09-29T17:04:53.750Z,12.36
2022-09-29T17:07:23.166Z,12.29
2022-09-29T17:09:56.153Z,12.21
2022-09-29T17:12:24.969Z,12.17
2022-09-29T17:14:51.548Z,12.16
2022-09-29T17:17:26.328Z,12.10
2022-09-29T17:19:56.526Z,12.05
2022-09-29T17:22:36.861Z,11.95
2022-09-29T17:25:04.650Z,11.86
2022-09-29T17:28:09.711Z,11.81
2022-09-29T17:30:36.280Z,11.75
2022-09-29T17:33:03.771Z,11.70
2022-09-29T17:35:34.768Z,11.59
2022-09-29T17:38:01.431Z,11.50
2022-09-29T17:40:34.421Z,11.39
2022-09-29T17:43:01.035Z,11.32
2022-09-29T17:45:39.358Z,11.26
2022-09-29T17:48:06.035Z,11.16
2022-09-29T17:50:47.947Z,11.08
2022-09-29T17:53:17.861Z,11.00
2022-09-29T17:55:47.119Z,10.93
2022-09-29T17:58:16.218Z,10.83
2022-09-29T18:00:47.240Z,10.71
2022-09-29T18:03:14.449Z,10.65
2022-09-29T18:05:42.853Z,10.61
2022-09-29T18:08:17.455Z,10.58
2022-09-29T18:10:43.984Z,10.56
2022-09-29T18:13:11.700Z,10.53
2022-09-29T18:15:39.045Z,10.51
2022-09-29T18:18:07.806Z,10.51
2022-09-29T18:20:40.185Z,10.55
2022-09-29T18:23:06.766Z,10.52
2022-09-29T18:25:34.926Z,10.49
2022-09-29T18:28:03.345Z,10.42
2022-09-29T18:30:34.064Z,10.35
2022-09-29T18:33:00.681Z,10.28
2022-09-29T18:35:31.248Z,10.22
2022-09-29T18:37:58.745Z,10.17
2022-09-29T18:40:26.833Z,10.13
2022-09-29T18:42:56.942Z,10.10
2022-09-29T18:45:25.730Z,10.04
2022-09-29T18:47:55.074Z,10.01
2022-09-29T18:50:25.223Z,9.98
2022-09-29T18:52:52.266Z,9.96
2022-09-29T18:55:24.017Z,9.94
2022-09-29T18:57:51.082Z,9.89
2022-09-29T19:00:20.249Z,9.86
2022-09-29T19:02:48.023Z,9.84
2022-09-29T19:05:21.219Z,9.82
2022-09-29T19:07:49.503Z,9.78
2022-09-29T19:10:17.321Z,9.75
2022-09-29T19:12:49.218Z,9.74
2022-09-29T19:15:17.788Z,9.68
2022-09-29T19:17:45.524Z,9.63
2022-09-29T19:20:13.697Z,9.57
2022-09-29T19:22:42.236Z,9.57
2022-09-29T19:25:14.289Z,9.50
2022-09-29T19:27:42.155Z,9.39
2022-09-29T19:30:13.886Z,9.42
2022-09-29T19:32:41.000Z,9.43
2022-09-29T19:35:10.131Z,9.43
2022-09-29T19:37:36.900Z,9.42
2022-09-29T19:40:05.713Z,9.39
2022-09-29T19:42:32.554Z,9.34
2022-09-29T19:44:59.450Z,9.29
2022-09-29T19:47:25.954Z,9.25
2022-09-29T19:50:12.421Z,9.23
2022-09-29T19:52:38.959Z,9.21
2022-09-29T19:55:11.025Z,9.18
2022-09-29T19:57:42.263Z,9.10
2022-09-29T20:00:11.371Z,9.12
2022-09-29T20:02:37.931Z,9.12
2022-09-29T20:05:05.613Z,9.10
2022-09-29T20:07:32.346Z,9.08
2022-09-29T20:09:58.884Z,9.08
2022-09-29T20:12:25.433Z,9.08
2022-09-29T20:14:51.930Z,9.04
2022-09-29T20:17:18.715Z,9.03
2022-09-29T20:19:47.698Z,9.00
2022-09-29T20:22:15.535Z,8.98
2022-09-29T20:24:42.066Z,8.97
2022-09-29T20:27:08.608Z,8.97
2022-09-29T20:29:35.219Z,8.95
2022-09-29T20:32:01.763Z,8.91
2022-09-29T20:34:28.431Z,8.91
2022-09-29T20:36:55.402Z,8.89
2022-09-29T20:39:22.364Z,8.87
2022-09-29T20:41:50.086Z,8.87
2022-09-29T20:44:23.640Z,8.84
2022-09-29T20:46:51.161Z,8.82
2022-09-29T20:49:17.948Z,8.79
2022-09-29T20:51:44.555Z,8.76
2022-09-29T20:54:13.037Z,8.75
2022-09-29T20:56:42.759Z,8.73
2022-09-29T20:59:12.378Z,8.73
2022-09-29T21:01:39.721Z,8.73
2022-09-29T21:04:11.952Z,8.73
2022-09-29T21:06:41.244Z,8.74
2022-09-29T21:09:11.479Z,8.72
2022-09-29T21:11:40.149Z,8.72
2022-09-29T21:14:09.459Z,8.76
2022-09-29T21:16:37.638Z,8.78
2022-09-29T21:19:04.279Z,8.76
2022-09-29T21:21:31.356Z,8.76
2022-09-29T21:23:57.860Z,8.74
2022-09-29T21:26:26.330Z,8.70
2022-09-29T21:28:55.563Z,8.68
2022-09-29T21:31:30.580Z,8.63
2022-09-29T21:33:59.907Z,8.63
2022-09-29T21:36:28.163Z,8.58
2022-09-29T21:38:54.861Z,8.55
2022-09-29T21:41:24.376Z,8.48
2022-09-29T21:43:53.455Z,8.40
2022-09-29T21:46:26.059Z,8.36
2022-09-29T21:48:58.372Z,8.35
2022-09-29T21:51:29.531Z,8.33
2022-09-29T21:53:58.649Z,8.30
2022-09-29T21:56:27.346Z,8.27
2022-09-29T21:58:55.025Z,8.22
2022-09-29T22:01:21.908Z,8.19
2022-09-29T22:03:49.222Z,8.18
2022-09-29T22:06:18.810Z,8.16
2022-09-29T22:08:49.557Z,8.15
2022-09-29T22:11:18.555Z,8.13
2022-09-29T22:13:48.287Z,8.12
2022-09-29T22:16:22.012Z,8.09
2022-09-29T22:19:05.909Z,8.05
2022-09-29T22:21:36.115Z,8.00
2022-09-29T22:24:03.758Z,8.01
2022-09-29T22:26:32.029Z,8.02
2022-09-29T22:29:02.944Z,8.02
2022-09-29T22:31:31.640Z,8.04
2022-09-29T22:34:00.134Z,8.05
2022-09-29T22:36:28.365Z,8.07
2022-09-29T22:38:55.171Z,8.07
2022-09-29T22:41:24.213Z,8.08
2022-09-29T22:43:53.332Z,8.08
2022-09-29T22:46:21.699Z,8.07
2022-09-29T22:48:48.386Z,8.06
2022-09-29T22:51:15.117Z,8.04
2022-09-29T22:53:42.423Z,8.03
2022-09-29T22:56:12.653Z,8.02
2022-09-29T22:58:41.912Z,8.03
2022-09-29T23:01:13.483Z,7.98
2022-09-29T23:03:41.833Z,7.96
2022-09-29T23:06:09.279Z,7.96
2022-09-29T23:08:36.783Z,7.93
2022-09-29T23:11:07.482Z,7.90
2022-09-29T23:13:36.904Z,7.84
2022-09-29T23:16:12.346Z,7.83
2022-09-29T23:18:45.538Z,7.84
2022-09-29T23:21:19.759Z,7.83
2022-09-29T23:23:47.527Z,7.80
2022-09-29T23:26:14.864Z,7.78
2022-09-29T23:28:41.509Z,7.76
2022-09-29T23:31:09.480Z,7.75
2022-09-29T23:33:36.124Z,7.72
2022-09-29T23:36:13.979Z,7.68
2022-09-29T23:39:01.888Z,7.69
2022-09-29T23:41:30.167Z,7.67
2022-09-29T23:43:59.797Z,7.62
2022-09-29T23:46:31.709Z,7.59
2022-09-29T23:49:00.020Z,7.57
2022-09-29T23:51:28.229Z,7.55
2022-09-29T23:53:54.754Z,7.54
2022-09-29T23:56:21.542Z,7.53
2022-09-29T23:58:48.109Z,7.52
